createdAt,value
2023-01-02T00:01:00.731Z,16.20
2023-01-02T00:02:02.421Z,16.20
2023-01-02T00:03:04.501Z,16.20
2023-01-02T00:04:06.422Z,16.20
2023-01-02T00:05:08.548Z,16.10
2023-01-02T00:06:10.398Z,16.20
2023-01-02T00:07:12.178Z,16.20
2023-01-02T00:08:13.927Z,16.20
2023-01-02T00:09:16.757Z,16.20
2023-01-02T00:10:18.442Z,16.20
2023-01-02T00:11:20.170Z,16.20
2023-01-02T00:12:21.962Z,16.20
2023-01-02T00:13:24.016Z,16.20
2023-01-02T00:14:25.731Z,16.20
2023-01-02T00:15:27.729Z,16.20
2023-01-02T00:16:29.569Z,16.20
2023-01-02T00:17:31.468Z,16.20
2023-01-02T00:18:33.212Z,16.20
2023-01-02T00:19:34.920Z,16.20
2023-01-02T00:20:36.837Z,16.20
2023-01-02T00:21:39.976Z,16.20
2023-01-02T00:22:41.935Z,16.20
2023-01-02T00:23:44.257Z,16.30
2023-01-02T00:24:46.064Z,16.20
2023-01-02T00:25:48.943Z,16.20
2023-01-02T00:26:50.839Z,16.40
2023-01-02T00:27:52.856Z,16.20
2023-01-02T00:28:54.664Z,16.20
2023-01-02T00:29:56.431Z,16.20
2023-01-02T00:30:58.233Z,16.20
2023-01-02T00:32:00.151Z,16.20
2023-01-02T00:33:01.920Z,16.20
2023-01-02T00:34:03.629Z,16.20
2023-01-02T00:35:05.830Z,16.20
2023-01-02T00:36:10.089Z,16.20
2023-01-02T00:37:11.762Z,16.20
2023-01-02T00:38:13.504Z,16.20
2023-01-02T00:39:15.171Z,16.20
2023-01-02T00:40:16.940Z,16.20
2023-01-02T00:41:19.072Z,16.20
2023-01-02T00:42:20.824Z,16.10
2023-01-02T00:43:23.135Z,16.10
2023-01-02T00:44:24.808Z,16.10
2023-01-02T00:45:27.197Z,16.10
2023-01-02T00:46:29.130Z,16.10
2023-01-02T00:47:31.249Z,16.10
2023-01-02T00:48:32.917Z,15.90
2023-01-02T00:49:34.758Z,16.10
2023-01-02T00:50:36.737Z,16.10
2023-01-02T00:51:38.504Z,16.10
2023-01-02T00:52:40.379Z,16.10
2023-01-02T00:53:42.148Z,16.10
2023-01-02T00:54:43.840Z,16.10
2023-01-02T00:55:46.950Z,16.10
2023-01-02T00:56:48.643Z,16.10
2023-01-02T00:57:50.377Z,16.00
2023-01-02T00:58:52.024Z,16.00
2023-01-02T00:59:53.719Z,16.00
2023-01-02T01:00:55.666Z,16.00
2023-01-02T01:01:57.531Z,16.00
2023-01-02T01:03:00.257Z,16.00
2023-01-02T01:04:02.058Z,15.90
2023-01-02T01:05:04.187Z,15.90
2023-01-02T01:06:08.043Z,15.90
2023-01-02T01:07:09.889Z,15.90
2023-01-02T01:08:11.838Z,15.90
2023-01-02T01:09:13.669Z,15.80
2023-01-02T01:10:15.423Z,15.80
2023-01-02T01:11:17.856Z,15.80
2023-01-02T01:12:20.583Z,15.80
2023-01-02T01:13:22.629Z,15.80
2023-01-02T01:14:24.691Z,15.80
2023-01-02T01:15:26.535Z,15.70
2023-01-02T01:16:28.401Z,15.70
2023-01-02T01:17:32.408Z,15.70
2023-01-02T01:18:34.790Z,15.70
2023-01-02T01:19:36.834Z,15.70
2023-01-02T01:20:39.706Z,15.70
2023-01-02T01:21:42.065Z,15.60
2023-01-02T01:22:43.978Z,15.60
2023-01-02T01:23:53.445Z,15.60
2023-01-02T01:24:55.117Z,15.60
2023-01-02T01:25:56.824Z,15.60
2023-01-02T01:26:58.740Z,15.50
2023-01-02T01:28:00.606Z,15.50
2023-01-02T01:29:02.854Z,15.50
2023-01-02T01:30:06.551Z,15.50
2023-01-02T01:31:15.222Z,15.50
2023-01-02T01:32:17.002Z,15.50
2023-01-02T01:33:18.928Z,15.50
2023-01-02T01:34:20.715Z,15.50
2023-01-02T01:35:22.607Z,15.40
2023-01-02T01:36:25.344Z,15.40
2023-01-02T01:37:28.377Z,15.50
2023-01-02T01:38:31.062Z,15.40
2023-01-02T01:39:32.756Z,15.40
2023-01-02T01:40:38.655Z,15.40
2023-01-02T01:41:40.339Z,15.40
2023-01-02T01:42:41.968Z,15.30
2023-01-02T01:43:56.154Z,15.30
2023-01-02T01:44:57.799Z,15.30
2023-01-02T01:45:59.470Z,15.30
2023-01-02T01:47:02.183Z,15.30
2023-01-02T01:48:03.941Z,15.30
2023-01-02T01:49:12.013Z,15.30
2023-01-02T01:50:21.423Z,15.20
2023-01-02T01:51:24.841Z,15.20
2023-01-02T01:52:30.337Z,15.20
2023-01-02T01:53:32.461Z,15.20
2023-01-02T01:54:39.046Z,15.20
2023-01-02T01:55:57.391Z,15.10
2023-01-02T01:57:11.745Z,15.10
2023-01-02T01:58:18.761Z,15.10
2023-01-02T01:59:20.763Z,15.10
2023-01-02T02:00:22.592Z,15.10
2023-01-02T02:01:24.919Z,15.00
2023-01-02T02:02:28.849Z,15.00
2023-01-02T02:03:33.783Z,15.00
2023-01-02T02:04:35.680Z,15.00
2023-01-02T02:05:38.106Z,14.90
2023-01-02T02:06:40.393Z,14.90
2023-01-02T02:07:49.109Z,14.90
2023-01-02T02:09:19.075Z,14.90
2023-01-02T02:10:20.896Z,14.90
2023-01-02T02:11:23.136Z,15.00
2023-01-02T02:12:28.265Z,14.90
2023-01-02T02:13:32.490Z,14.80
2023-01-02T02:14:34.574Z,14.80
2023-01-02T02:16:09.364Z,14.70
2023-01-02T02:17:29.607Z,14.80
2023-01-02T02:19:02.220Z,14.80
2023-01-02T02:20:22.077Z,14.70
2023-01-02T02:21:43.951Z,14.70
2023-01-02T02:23:10.381Z,14.70
2023-01-02T02:24:29.417Z,14.70
2023-01-02T02:25:51.637Z,14.60
2023-01-02T02:27:23.181Z,14.60
2023-01-02T02:28:57.137Z,14.60
2023-01-02T02:30:26.760Z,14.60
2023-01-02T02:31:56.136Z,14.60
2023-01-02T02:33:10.904Z,14.60
2023-01-02T02:34:27.138Z,14.60
2023-01-02T02:36:04.154Z,14.60
2023-01-02T02:37:27.261Z,14.60
2023-01-02T02:38:50.995Z,14.40
2023-01-02T02:40:01.466Z,14.50
2023-01-02T02:41:03.238Z,14.50
2023-01-02T02:42:23.929Z,14.40
2023-01-02T02:43:36.384Z,14.40
2023-01-02T02:45:05.359Z,14.40
2023-01-02T02:46:13.340Z,14.30
2023-01-02T02:47:21.357Z,14.30
2023-01-02T02:48:55.643Z,14.30
2023-01-02T02:50:02.755Z,14.30
2023-01-02T02:51:18.996Z,14.30
2023-01-02T02:52:32.556Z,14.30
2023-01-02T02:53:43.764Z,14.20
2023-01-02T02:55:06.910Z,14.20
2023-01-02T02:56:11.808Z,14.20
2023-01-02T02:57:15.871Z,14.20
2023-01-02T02:58:22.391Z,14.20
2023-01-02T02:59:24.061Z,14.20
2023-01-02T03:00:26.127Z,14.00
2023-01-02T03:01:30.928Z,14.20
2023-01-02T03:02:34.406Z,14.20
2023-01-02T03:03:36.316Z,14.20
2023-01-02T03:04:38.425Z,14.20
2023-01-02T03:05:42.362Z,14.20
2023-01-02T03:07:14.802Z,14.20
2023-01-02T03:08:47.358Z,14.20
2023-01-02T03:10:02.189Z,14.20
2023-01-02T03:11:04.321Z,14.20
2023-01-02T03:12:20.473Z,14.20
2023-01-02T03:13:41.885Z,14.20
2023-01-02T03:14:56.495Z,14.20
2023-01-02T03:16:28.570Z,14.20
2023-01-02T03:17:46.520Z,14.20
2023-01-02T03:19:07.866Z,14.20
2023-01-02T03:20:14.294Z,14.20
2023-01-02T03:21:38.834Z,14.20
2023-01-02T03:22:48.799Z,14.30
2023-01-02T03:23:50.609Z,14.30
2023-01-02T03:24:55.554Z,14.30
2023-01-02T03:25:58.509Z,14.30
2023-01-02T03:27:03.935Z,14.30
2023-01-02T03:28:08.878Z,14.30
2023-01-02T03:29:20.141Z,14.30
2023-01-02T03:30:22.855Z,14.30
2023-01-02T03:31:27.797Z,14.30
2023-01-02T03:32:33.585Z,14.30
2023-01-02T03:33:42.809Z,14.30
2023-01-02T03:34:47.160Z,14.30
2023-01-02T03:35:52.576Z,14.30
2023-01-02T03:37:00.232Z,14.30
2023-01-02T03:38:05.449Z,14.30
2023-01-02T03:39:18.722Z,14.20
2023-01-02T03:40:25.826Z,14.20
2023-01-02T03:41:41.425Z,14.20
2023-01-02T03:42:49.935Z,14.10
2023-01-02T03:43:56.949Z,14.10
2023-01-02T03:45:09.474Z,14.10
2023-01-02T03:46:33.592Z,14.10
2023-01-02T03:48:06.213Z,14.10
2023-01-02T03:49:26.893Z,14.00
2023-01-02T03:50:40.933Z,14.00
2023-01-02T03:51:43.073Z,14.00
2023-01-02T03:52:44.961Z,14.00
2023-01-02T03:53:49.630Z,14.00
2023-01-02T03:54:51.843Z,14.00
2023-01-02T03:56:21.987Z,14.00
2023-01-02T03:57:42.379Z,14.00
2023-01-02T03:59:13.157Z,14.00
2023-01-02T04:00:18.064Z,14.00
2023-01-02T04:01:51.940Z,14.00
2023-01-02T04:03:26.305Z,14.00
2023-01-02T04:04:54.726Z,14.00
2023-01-02T04:06:04.121Z,14.10
2023-01-02T04:07:11.319Z,14.10
2023-01-02T04:08:32.434Z,14.10
2023-01-02T04:09:35.225Z,14.10
2023-01-02T04:10:38.554Z,14.00
2023-01-02T04:11:45.180Z,14.20
2023-01-02T04:12:52.600Z,14.30
2023-01-02T04:13:59.390Z,14.30
2023-01-02T04:15:05.503Z,14.30
2023-01-02T04:16:10.822Z,14.30
2023-01-02T04:17:16.342Z,14.40
2023-01-02T04:18:21.043Z,14.40
2023-01-02T04:19:51.287Z,14.40
2023-01-02T04:20:58.972Z,14.30
2023-01-02T04:22:06.822Z,14.50
2023-01-02T04:23:16.997Z,14.50
2023-01-02T04:24:24.591Z,14.60
2023-01-02T04:25:33.676Z,14.60
2023-01-02T04:26:40.796Z,14.60
2023-01-02T04:28:09.700Z,14.60
2023-01-02T04:29:12.025Z,14.70
2023-01-02T04:30:15.497Z,14.70
2023-01-02T04:31:32.676Z,14.70
2023-01-02T04:32:40.958Z,14.70
2023-01-02T04:33:49.893Z,14.70
2023-01-02T04:34:53.075Z,14.70
2023-01-02T04:35:54.786Z,14.80
2023-01-02T04:36:56.610Z,14.80
2023-01-02T04:38:07.937Z,14.80
2023-01-02T04:39:11.133Z,14.80
2023-01-02T04:40:23.684Z,14.80
2023-01-02T04:41:29.158Z,14.80
2023-01-02T04:42:31.233Z,14.80
2023-01-02T04:43:33.305Z,14.90
2023-01-02T04:44:35.025Z,14.90
2023-01-02T04:45:37.279Z,14.90
2023-01-02T04:46:38.998Z,14.90
2023-01-02T04:47:40.890Z,14.90
2023-01-02T04:48:42.600Z,14.90
2023-01-02T04:49:45.578Z,15.00
2023-01-02T04:50:49.275Z,15.00
2023-01-02T04:51:50.939Z,15.00
2023-01-02T04:52:52.610Z,15.00
2023-01-02T04:53:56.527Z,15.00
2023-01-02T04:54:58.176Z,15.00
2023-01-02T04:55:59.956Z,15.00
2023-01-02T04:57:01.699Z,15.00
2023-01-02T04:58:04.102Z,15.00
2023-01-02T04:59:05.944Z,15.10
2023-01-02T05:00:09.091Z,15.10
2023-01-02T05:01:12.286Z,15.10
2023-01-02T05:02:14.060Z,15.10
2023-01-02T05:03:15.869Z,15.10
2023-01-02T05:04:17.724Z,15.10
2023-01-02T05:05:19.572Z,15.20
2023-01-02T05:06:21.564Z,15.20
2023-01-02T05:07:23.691Z,15.10
2023-01-02T05:08:25.356Z,15.20
2023-01-02T05:09:27.054Z,15.20
2023-01-02T05:10:28.755Z,15.20
2023-01-02T05:11:32.300Z,15.20
2023-01-02T05:12:35.499Z,15.20
2023-01-02T05:13:37.293Z,15.20
2023-01-02T05:14:40.292Z,15.20
2023-01-02T05:15:42.230Z,15.20
2023-01-02T05:16:43.947Z,15.20
2023-01-02T05:17:45.790Z,15.20
2023-01-02T05:18:47.621Z,15.20
2023-01-02T05:19:49.425Z,15.20
2023-01-02T05:20:51.222Z,15.20
2023-01-02T05:22:11.744Z,15.20
2023-01-02T05:23:32.046Z,15.20
2023-01-02T05:24:35.335Z,14.90
2023-01-02T05:25:37.082Z,15.20
2023-01-02T05:26:38.794Z,15.20
2023-01-02T05:27:41.133Z,15.10
2023-01-02T05:28:43.165Z,15.10
2023-01-02T05:29:47.327Z,15.10
2023-01-02T05:30:49.773Z,15.10
2023-01-02T05:31:51.905Z,15.10
2023-01-02T05:32:54.155Z,15.30
2023-01-02T05:33:58.123Z,15.10
2023-01-02T05:35:01.401Z,15.10
2023-01-02T05:36:08.452Z,15.10
2023-01-02T05:37:10.211Z,15.10
2023-01-02T05:38:11.913Z,15.00
2023-01-02T05:39:14.499Z,15.00
2023-01-02T05:40:16.257Z,15.00
2023-01-02T05:41:18.294Z,15.00
2023-01-02T05:42:20.001Z,15.00
2023-01-02T05:43:21.943Z,15.00
2023-01-02T05:44:24.052Z,15.00
2023-01-02T05:45:27.124Z,15.00
2023-01-02T05:46:28.908Z,14.90
2023-01-02T05:47:30.866Z,14.90
2023-01-02T05:48:32.543Z,15.10
2023-01-02T05:49:34.260Z,14.90
2023-01-02T05:50:35.959Z,14.90
2023-01-02T05:51:37.976Z,14.90
2023-01-02T05:52:45.182Z,14.90
2023-01-02T05:53:51.963Z,14.80
2023-01-02T05:54:53.696Z,14.80
2023-01-02T05:55:55.574Z,14.80
2023-01-02T05:56:57.468Z,14.80
2023-01-02T05:57:59.564Z,14.80
2023-01-02T05:59:01.271Z,14.80
2023-01-02T06:00:04.505Z,14.70
2023-01-02T06:01:11.616Z,14.80
2023-01-02T06:02:13.872Z,14.70
2023-01-02T06:03:15.751Z,14.70
2023-01-02T06:04:19.768Z,14.70
2023-01-02T06:05:21.763Z,14.70
2023-01-02T06:06:29.474Z,14.70
2023-01-02T06:07:31.188Z,14.70
2023-01-02T06:08:33.744Z,14.70
2023-01-02T06:09:35.568Z,14.70
2023-01-02T06:10:37.595Z,14.70
2023-01-02T06:11:39.582Z,14.70
2023-01-02T06:12:41.321Z,14.70
2023-01-02T06:13:43.280Z,14.70
2023-01-02T06:14:45.137Z,14.70
2023-01-02T06:15:46.854Z,14.70
2023-01-02T06:16:48.576Z,14.70
2023-01-02T06:17:50.612Z,14.70
2023-01-02T06:18:52.763Z,14.70
2023-01-02T06:19:54.788Z,14.70
2023-01-02T06:21:04.395Z,14.70
2023-01-02T06:22:06.191Z,14.70
2023-01-02T06:23:08.093Z,14.70
2023-01-02T06:24:10.257Z,14.70
2023-01-02T06:25:12.033Z,14.70
2023-01-02T06:26:16.493Z,14.70
2023-01-02T06:27:18.202Z,14.70
2023-01-02T06:28:20.033Z,14.70
2023-01-02T06:29:22.260Z,14.60
2023-01-02T06:30:23.970Z,14.70
2023-01-02T06:31:27.942Z,14.70
2023-01-02T06:32:30.103Z,14.70
2023-01-02T06:33:32.192Z,14.70
2023-01-02T06:34:33.891Z,14.70
2023-01-02T06:35:35.842Z,14.70
2023-01-02T06:36:37.538Z,14.70
2023-01-02T06:37:44.412Z,14.70
2023-01-02T06:38:46.756Z,14.70
2023-01-02T06:39:48.739Z,14.70
2023-01-02T06:40:58.496Z,14.70
2023-01-02T06:42:00.354Z,14.70
2023-01-02T06:43:02.083Z,14.80
2023-01-02T06:44:03.857Z,14.70
2023-01-02T06:45:06.194Z,14.80
2023-01-02T06:46:08.344Z,14.80
2023-01-02T06:47:10.096Z,14.80
2023-01-02T06:48:11.915Z,14.80
2023-01-02T06:49:13.830Z,14.80
2023-01-02T06:50:15.554Z,14.80
2023-01-02T06:51:19.844Z,14.80
2023-01-02T06:52:21.760Z,14.80
2023-01-02T06:53:23.521Z,14.90
2023-01-02T06:54:25.278Z,14.80
2023-01-02T06:55:26.981Z,14.90
2023-01-02T06:56:28.644Z,14.90
2023-01-02T06:57:31.246Z,14.90
2023-01-02T06:58:35.076Z,14.90
2023-01-02T06:59:37.122Z,14.90
2023-01-02T07:00:40.247Z,14.90
2023-01-02T07:01:42.302Z,14.90
2023-01-02T07:02:44.358Z,14.90
2023-01-02T07:03:46.393Z,14.90
2023-01-02T07:04:48.225Z,14.90
2023-01-02T07:05:50.224Z,14.90
2023-01-02T07:06:54.344Z,15.00
2023-01-02T07:07:56.097Z,14.90
2023-01-02T07:08:57.917Z,14.90
2023-01-02T07:09:59.573Z,14.90
2023-01-02T07:11:13.544Z,14.90
2023-01-02T07:12:18.320Z,14.90
2023-01-02T07:13:20.048Z,14.90
2023-01-02T07:14:22.192Z,14.90
2023-01-02T07:15:24.225Z,14.90
2023-01-02T07:16:25.991Z,14.90
2023-01-02T07:17:27.696Z,14.90
2023-01-02T07:18:29.557Z,14.90
2023-01-02T07:19:31.229Z,14.90
2023-01-02T07:20:33.542Z,14.90
2023-01-02T07:21:35.451Z,14.90
2023-01-02T07:22:37.217Z,14.90
2023-01-02T07:23:39.192Z,14.90
2023-01-02T07:24:41.203Z,14.90
2023-01-02T07:25:44.702Z,14.90
2023-01-02T07:26:46.588Z,14.90
2023-01-02T07:27:48.564Z,14.90
2023-01-02T07:28:50.328Z,14.90
2023-01-02T07:29:52.263Z,14.90
2023-01-02T07:30:58.272Z,14.90
2023-01-02T07:32:00.453Z,14.90
2023-01-02T07:33:02.174Z,14.90
2023-01-02T07:34:03.959Z,14.90
2023-01-02T07:35:06.587Z,14.90
2023-01-02T07:36:11.399Z,14.90
2023-01-02T07:37:13.332Z,14.90
2023-01-02T07:38:15.045Z,14.90
2023-01-02T07:39:16.852Z,14.90
2023-01-02T07:40:19.527Z,14.90
2023-01-02T07:41:26.101Z,14.90
2023-01-02T07:42:28.462Z,14.80
2023-01-02T07:43:30.509Z,14.80
2023-01-02T07:44:32.266Z,14.80
2023-01-02T07:45:34.781Z,14.80
2023-01-02T07:46:36.560Z,14.80
2023-01-02T07:47:38.300Z,14.80
2023-01-02T07:48:40.225Z,14.80
2023-01-02T07:49:42.082Z,14.80
2023-01-02T07:50:43.813Z,14.70
2023-01-02T07:51:45.575Z,14.70
2023-01-02T07:52:47.256Z,14.70
2023-01-02T07:53:48.856Z,14.70
2023-01-02T07:54:50.566Z,14.70
2023-01-02T07:55:56.834Z,14.70
2023-01-02T07:56:58.453Z,14.60
2023-01-02T07:58:00.105Z,14.60
2023-01-02T07:59:01.697Z,14.60
2023-01-02T08:00:05.011Z,14.60
2023-01-02T08:01:09.000Z,14.50
2023-01-02T08:02:11.794Z,14.50
2023-01-02T08:03:13.940Z,14.50
2023-01-02T08:04:15.667Z,14.50
2023-01-02T08:05:17.418Z,14.50
2023-01-02T08:06:19.677Z,14.50
2023-01-02T08:07:23.192Z,14.50
2023-01-02T08:08:24.879Z,14.50
2023-01-02T08:09:26.533Z,14.50
2023-01-02T08:10:28.560Z,14.50
2023-01-02T08:11:30.229Z,14.40
2023-01-02T08:12:31.855Z,14.50
2023-01-02T08:13:33.655Z,14.50
2023-01-02T08:14:35.336Z,14.40
2023-01-02T08:15:36.969Z,14.40
2023-01-02T08:16:40.028Z,14.40
2023-01-02T08:17:41.701Z,14.50
2023-01-02T08:18:43.863Z,14.40
2023-01-02T08:19:45.824Z,14.40
2023-01-02T08:20:47.515Z,14.40
2023-01-02T08:21:49.357Z,14.30
2023-01-02T08:22:51.111Z,14.40
2023-01-02T08:23:53.139Z,14.40
2023-01-02T08:24:54.789Z,14.40
2023-01-02T08:26:04.609Z,14.40
2023-01-02T08:27:06.201Z,14.40
2023-01-02T08:28:07.844Z,14.40
2023-01-02T08:29:09.761Z,14.40
2023-01-02T08:30:12.013Z,14.40
2023-01-02T08:31:16.954Z,14.30
2023-01-02T08:32:18.771Z,14.30
2023-01-02T08:33:20.489Z,14.30
2023-01-02T08:34:22.127Z,14.30
2023-01-02T08:35:37.410Z,14.30
2023-01-02T08:36:40.047Z,14.30
2023-01-02T08:37:46.730Z,14.30
2023-01-02T08:38:51.901Z,14.30
2023-01-02T08:39:53.568Z,14.20
2023-01-02T08:40:58.506Z,14.10
2023-01-02T08:42:00.175Z,14.20
2023-01-02T08:43:01.798Z,14.20
2023-01-02T08:44:03.622Z,14.20
2023-01-02T08:45:06.568Z,14.20
2023-01-02T08:46:09.911Z,14.30
2023-01-02T08:47:11.796Z,14.30
2023-01-02T08:48:20.345Z,14.30
2023-01-02T08:49:23.182Z,14.30
2023-01-02T08:50:25.198Z,14.30
2023-01-02T08:51:27.873Z,14.30
2023-01-02T08:52:29.567Z,14.30
2023-01-02T08:53:31.255Z,14.30
2023-01-02T08:54:33.143Z,14.30
2023-01-02T08:55:37.089Z,14.30
2023-01-02T08:56:38.777Z,14.30
2023-01-02T08:57:40.432Z,14.40
2023-01-02T08:58:42.075Z,14.40
2023-01-02T08:59:43.932Z,14.30
2023-01-02T09:00:45.713Z,14.40
2023-01-02T09:01:47.490Z,14.50
2023-01-02T09:02:49.373Z,14.40
2023-01-02T09:03:52.173Z,14.40
2023-01-02T09:04:53.901Z,14.40
2023-01-02T09:05:55.670Z,14.40
2023-01-02T09:06:57.391Z,14.40
2023-01-02T09:07:59.273Z,14.50
2023-01-02T09:09:05.778Z,14.50
2023-01-02T09:10:11.212Z,14.50
2023-01-02T09:11:18.598Z,14.50
2023-01-02T09:12:20.239Z,14.50
2023-01-02T09:13:21.929Z,14.50
2023-01-02T09:14:23.927Z,14.50
2023-01-02T09:15:25.932Z,14.60
2023-01-02T09:16:28.348Z,14.60
2023-01-02T09:17:30.356Z,14.60
2023-01-02T09:18:32.270Z,14.60
2023-01-02T09:19:34.037Z,14.70
2023-01-02T09:20:40.204Z,14.70
2023-01-02T09:21:42.102Z,14.70
2023-01-02T09:22:44.984Z,14.70
2023-01-02T09:23:46.665Z,14.70
2023-01-02T09:24:48.337Z,14.80
2023-01-02T09:25:50.299Z,14.80
2023-01-02T09:26:51.982Z,14.80
2023-01-02T09:27:53.603Z,14.80
2023-01-02T09:28:55.328Z,14.80
2023-01-02T09:29:57.048Z,14.80
2023-01-02T09:30:59.536Z,14.80
2023-01-02T09:32:01.384Z,14.80
2023-01-02T09:33:03.158Z,14.80
2023-01-02T09:34:04.917Z,14.90
2023-01-02T09:35:06.853Z,14.80
2023-01-02T09:36:10.603Z,14.80
2023-01-02T09:37:12.324Z,14.80
2023-01-02T09:38:14.389Z,14.80
2023-01-02T09:39:16.115Z,14.80
2023-01-02T09:40:18.206Z,14.90
2023-01-02T09:41:22.859Z,14.90
2023-01-02T09:42:24.537Z,14.90
2023-01-02T09:43:40.783Z,14.90
2023-01-02T09:44:50.836Z,14.90
2023-01-02T09:45:56.071Z,14.90
2023-01-02T09:47:04.823Z,14.90
2023-01-02T09:48:06.716Z,15.00
2023-01-02T09:49:14.088Z,15.00
2023-01-02T09:50:25.877Z,15.00
2023-01-02T09:51:29.082Z,15.00
2023-01-02T09:52:40.413Z,15.20
2023-01-02T09:53:42.229Z,15.10
2023-01-02T09:54:43.972Z,15.10
2023-01-02T09:55:55.171Z,15.10
2023-01-02T09:57:14.878Z,15.10
2023-01-02T09:58:25.588Z,15.20
2023-01-02T09:59:36.265Z,15.20
2023-01-02T10:00:39.024Z,15.20
2023-01-02T10:02:17.807Z,15.20
2023-01-02T10:03:38.428Z,15.30
2023-01-02T10:05:02.459Z,15.30
2023-01-02T10:06:23.359Z,15.30
2023-01-02T10:07:43.962Z,15.40
2023-01-02T10:09:09.621Z,15.40
2023-01-02T10:10:17.694Z,15.40
2023-01-02T10:11:40.594Z,15.40
2023-01-02T10:13:01.282Z,15.40
2023-01-02T10:14:37.575Z,15.40
2023-01-02T10:15:49.290Z,15.40
2023-01-02T10:16:55.335Z,15.40
2023-01-02T10:18:02.576Z,15.40
2023-01-02T10:19:12.635Z,15.40
2023-01-02T10:20:16.625Z,15.40
2023-01-02T10:21:31.341Z,15.40
2023-01-02T10:22:45.297Z,15.50
2023-01-02T10:24:02.293Z,15.50
2023-01-02T10:25:11.494Z,15.50
2023-01-02T10:26:16.686Z,15.60
2023-01-02T10:27:22.634Z,15.50
2023-01-02T10:28:52.419Z,15.60
2023-01-02T10:30:13.693Z,15.60
2023-01-02T10:31:27.318Z,15.60
2023-01-02T10:32:32.147Z,15.60
2023-01-02T10:33:44.509Z,15.60
2023-01-02T10:35:07.894Z,15.70
2023-01-02T10:36:24.948Z,15.70
2023-01-02T10:37:27.854Z,15.70
2023-01-02T10:38:36.961Z,15.70
2023-01-02T10:39:39.308Z,15.80
2023-01-02T10:40:47.459Z,15.80
2023-01-02T10:41:58.250Z,15.80
2023-01-02T10:43:00.570Z,15.90
2023-01-02T10:44:16.610Z,15.90
2023-01-02T10:45:18.476Z,16.00
2023-01-02T10:46:20.477Z,16.00
2023-01-02T10:47:25.174Z,16.10
2023-01-02T10:48:30.247Z,16.10
2023-01-02T10:49:34.580Z,16.20
2023-01-02T10:50:48.461Z,16.20
2023-01-02T10:52:11.550Z,16.30
2023-01-02T10:53:34.190Z,16.40
2023-01-02T10:54:56.764Z,16.50
2023-01-02T10:56:03.130Z,16.50
2023-01-02T10:57:13.549Z,16.60
2023-01-02T10:58:26.612Z,16.60
2023-01-02T10:59:29.296Z,16.70
2023-01-02T11:00:33.778Z,16.80
2023-01-02T11:01:53.659Z,16.80
2023-01-02T11:02:59.198Z,16.90
2023-01-02T11:04:00.874Z,16.90
2023-01-02T11:05:04.186Z,17.00
2023-01-02T11:06:28.265Z,17.00
2023-01-02T11:07:37.321Z,17.00
2023-01-02T11:08:40.607Z,17.10
2023-01-02T11:09:56.972Z,17.10
2023-01-02T11:11:01.791Z,17.20
2023-01-02T11:12:10.774Z,17.20
2023-01-02T11:13:18.899Z,17.30
2023-01-02T11:14:38.726Z,17.30
2023-01-02T11:15:58.273Z,17.30
2023-01-02T11:17:15.755Z,17.40
2023-01-02T11:18:25.000Z,17.40
2023-01-02T11:19:29.800Z,17.40
2023-01-02T11:20:34.923Z,17.50
2023-01-02T11:21:40.237Z,17.50
2023-01-02T11:22:42.029Z,17.60
2023-01-02T11:23:45.029Z,17.60
2023-01-02T11:25:00.605Z,17.70
2023-01-02T11:26:03.995Z,17.70
2023-01-02T11:27:05.742Z,17.80
2023-01-02T11:28:20.325Z,17.80
2023-01-02T11:29:27.515Z,17.90
2023-01-02T11:30:45.046Z,17.90
2023-01-02T11:31:57.273Z,17.90
2023-01-02T11:33:30.080Z,18.00
2023-01-02T11:34:38.389Z,18.00
2023-01-02T11:35:47.740Z,18.10
2023-01-02T11:37:03.184Z,18.10
2023-01-02T11:38:04.891Z,18.10
2023-01-02T11:39:22.871Z,18.20
2023-01-02T11:40:27.837Z,18.20
2023-01-02T11:42:08.086Z,18.20
2023-01-02T11:43:30.472Z,18.20
2023-01-02T11:44:54.607Z,18.20
2023-01-02T11:45:56.586Z,18.20
2023-01-02T11:47:00.242Z,18.30
2023-01-02T11:48:15.199Z,18.30
2023-01-02T11:49:24.435Z,18.40
2023-01-02T11:50:28.437Z,18.40
2023-01-02T11:51:33.399Z,18.40
2023-01-02T11:53:00.608Z,18.50
2023-01-02T11:54:06.832Z,18.50
2023-01-02T11:55:18.381Z,18.50
2023-01-02T11:56:28.372Z,18.50
2023-01-02T11:58:05.861Z,18.50
2023-01-02T11:59:15.963Z,18.50
2023-01-02T12:00:19.871Z,18.50
2023-01-02T12:01:39.598Z,18.50
2023-01-02T12:02:44.273Z,18.50
2023-01-02T12:03:46.379Z,18.50
2023-01-02T12:04:48.730Z,18.50
2023-01-02T12:06:02.322Z,18.60
2023-01-02T12:07:22.607Z,18.60
2023-01-02T12:08:43.371Z,18.60
2023-01-02T12:09:54.900Z,18.50
2023-01-02T12:11:30.649Z,18.50
2023-01-02T12:12:50.966Z,18.50
2023-01-02T12:13:58.878Z,18.50
2023-01-02T12:15:30.761Z,18.50
2023-01-02T12:16:40.771Z,18.50
2023-01-02T12:18:07.628Z,18.50
2023-01-02T12:19:15.304Z,18.50
2023-01-02T12:20:41.514Z,18.50
2023-01-02T12:22:22.228Z,18.50
2023-01-02T12:23:33.091Z,18.60
2023-01-02T12:24:58.826Z,18.50
2023-01-02T12:26:12.493Z,18.60
2023-01-02T12:27:21.143Z,18.60
2023-01-02T12:28:34.863Z,18.60
2023-01-02T12:29:47.726Z,18.60
2023-01-02T12:31:16.752Z,18.60
2023-01-02T12:32:55.322Z,18.60
2023-01-02T12:34:25.531Z,18.60
2023-01-02T12:35:54.780Z,18.60
2023-01-02T12:37:14.172Z,18.60
2023-01-02T12:38:33.541Z,18.60
2023-01-02T12:40:01.287Z,18.60
2023-01-02T12:41:32.302Z,18.60
2023-01-02T12:42:59.731Z,18.60
2023-01-02T12:44:27.253Z,18.60
2023-01-02T12:45:54.454Z,18.60
2023-01-02T12:47:13.316Z,18.60
2023-01-02T12:48:23.213Z,18.60
2023-01-02T12:49:28.136Z,18.60
2023-01-02T12:50:58.144Z,18.60
2023-01-02T12:52:14.349Z,18.60
2023-01-02T12:53:36.501Z,18.60
2023-01-02T12:54:47.684Z,18.60
2023-01-02T12:56:15.139Z,18.60
2023-01-02T12:57:52.360Z,18.60
2023-01-02T12:59:22.250Z,18.60
2023-01-02T13:01:00.507Z,18.70
2023-01-02T13:02:24.672Z,18.70
2023-01-02T13:03:58.277Z,18.70
2023-01-02T13:05:15.016Z,18.70
2023-01-02T13:06:44.370Z,18.70
2023-01-02T13:07:56.048Z,18.70
2023-01-02T13:09:09.774Z,18.70
2023-01-02T13:10:19.001Z,18.70
2023-01-02T13:11:29.949Z,18.70
2023-01-02T13:12:34.850Z,18.80
2023-01-02T13:13:38.650Z,18.80
2023-01-02T13:14:42.859Z,18.80
2023-01-02T13:15:50.059Z,18.80
2023-01-02T13:17:07.055Z,18.80
2023-01-02T13:18:17.167Z,18.80
2023-01-02T13:19:39.566Z,18.90
2023-01-02T13:20:51.500Z,18.90
2023-01-02T13:22:07.503Z,18.90
2023-01-02T13:23:24.214Z,18.90
2023-01-02T13:24:29.693Z,18.90
2023-01-02T13:25:32.468Z,18.90
2023-01-02T13:26:34.517Z,18.80
2023-01-02T13:27:36.569Z,18.80
2023-01-02T13:28:42.311Z,18.80
2023-01-02T13:29:45.798Z,18.80
2023-01-02T13:31:44.223Z,18.80
2023-01-02T13:32:29.998Z,18.80
2023-01-02T13:33:38.364Z,18.80
2023-01-02T13:34:54.078Z,18.70
2023-01-02T13:35:56.133Z,18.70
2023-01-02T13:37:23.429Z,18.70
2023-01-02T13:38:29.250Z,18.70
2023-01-02T13:39:45.996Z,18.60
2023-01-02T13:40:58.258Z,18.60
2023-01-02T13:42:21.401Z,18.60
2023-01-02T13:43:31.881Z,18.60
2023-01-02T13:44:38.240Z,18.50
2023-01-02T13:45:47.266Z,18.50
2023-01-02T13:47:04.590Z,18.50
2023-01-02T13:48:38.929Z,18.50
2023-01-02T13:49:41.193Z,18.50
2023-01-02T13:50:44.770Z,18.50
2023-01-02T13:51:46.607Z,18.50
2023-01-02T13:53:06.611Z,18.50
2023-01-02T13:54:14.178Z,18.50
2023-01-02T13:55:21.075Z,18.50
2023-01-02T13:56:25.094Z,18.50
2023-01-02T13:57:26.756Z,18.50
2023-01-02T13:58:57.598Z,18.50
2023-01-02T14:00:23.879Z,18.50
2023-01-02T14:01:33.094Z,18.60
2023-01-02T14:02:35.108Z,18.50
2023-01-02T14:03:37.686Z,18.50
2023-01-02T14:04:40.813Z,18.50
2023-01-02T14:05:58.613Z,18.50
2023-01-02T14:07:25.008Z,18.50
2023-01-02T14:08:39.206Z,18.50
2023-01-02T14:10:11.821Z,18.50
2023-01-02T14:11:25.651Z,18.40
2023-01-02T14:12:27.918Z,18.40
2023-01-02T14:13:38.346Z,18.40
2023-01-02T14:14:46.927Z,18.40
2023-01-02T14:16:41.786Z,18.40
2023-01-02T14:17:58.227Z,18.40
2023-01-02T14:19:15.478Z,18.40
2023-01-02T14:20:17.213Z,18.40
2023-01-02T14:21:20.126Z,18.40
2023-01-02T14:22:22.740Z,18.40
2023-01-02T14:23:32.709Z,18.40
2023-01-02T14:24:57.698Z,18.30
2023-01-02T14:25:59.533Z,18.40
2023-01-02T14:27:26.306Z,18.30
2023-01-02T14:28:31.339Z,18.30
2023-01-02T14:29:50.898Z,18.30
2023-01-02T14:30:55.147Z,18.30
2023-01-02T14:32:05.357Z,18.30
2023-01-02T14:33:09.673Z,18.30
2023-01-02T14:34:21.448Z,18.30